Time;durP1;ratioP1;P1;durP2;ratioP2;P2;SDS_P1;SDS_P2;PMS_P1;PMS_P2;Temp;Humidity;BMP_temperature;BMP_pressure;BME280_temperature;BME280_humidity;BME280_pressure;Samples;Min_cycle;Max_cycle;Signal;HPM_P1;HPM_P2
2022/09/20 00:02:25;;;;;;;;;;;12.40;83.50;;;;;;5053867;28;20080;-80
2022/09/20 00:04:50;;;;;;;;;;;12.40;83.50;;;;;;5062447;28;19931;-78
2022/09/20 00:07:16;;;;;;;;;;;12.40;82.80;;;;;;5048726;28;19921;-80
2022/09/20 00:09:41;;;;;;;;;;;12.40;83.00;;;;;;5049964;28;19927;-80
2022/09/20 00:12:07;;;;;;;;;;;12.30;83.50;;;;;;5052916;28;19946;-79
2022/09/20 00:14:33;;;;;;;;;;;12.20;83.90;;;;;;5051630;28;20396;-79
2022/09/20 00:16:59;;;;;;;;;;;12.10;84.50;;;;;;5050139;28;19924;-79
2022/09/20 00:19:24;;;;;;;;;;;12.10;84.60;;;;;;5097555;28;20321;-79
2022/09/20 00:21:50;;;;;;;;;;;12.10;84.90;;;;;;5051239;28;20051;-80
2022/09/20 00:24:15;;;;;;;;;;;12.00;84.90;;;;;;5052744;28;20015;-80
2022/09/20 00:26:41;;;;;;;;;;;12.10;84.20;;;;;;5055171;28;19924;-80
2022/09/20 00:29:07;;;;;;;;;;;12.00;85.10;;;;;;5056157;28;19969;-79
2022/09/20 00:31:32;;;;;;;;;;;12.00;85.00;;;;;;5058700;28;19917;-80
2022/09/20 00:36:43;;;;;;;;;;;11.90;85.10;;;;;;5049893;28;19927;-80
2022/09/20 00:39:10;;;;;;;;;;;12.00;85.20;;;;;;5055528;28;19958;-80
2022/09/20 00:41:36;;;;;;;;;;;11.90;85.20;;;;;;5053470;28;20048;-79
2022/09/20 00:44:02;;;;;;;;;;;11.90;85.50;;;;;;5051527;28;19932;-80
2022/09/20 00:46:33;;;;;;;;;;;11.90;85.10;;;;;;5050400;28;20285;-80
2022/09/20 00:49:02;;;;;;;;;;;11.80;86.00;;;;;;5065910;28;20015;-79
2022/09/20 00:51:30;;;;;;;;;;;11.90;85.50;;;;;;5059610;28;20397;-79
2022/09/20 00:53:57;;;;;;;;;;;11.80;85.70;;;;;;5050466;28;19917;-79
2022/09/20 00:56:26;;;;;;;;;;;11.80;85.70;;;;;;5053951;28;19916;-79
2022/09/20 00:59:05;;;;;;;;;;;11.70;86.40;;;;;;5052620;28;19927;-80
2022/09/20 01:01:31;;;;;;;;;;;11.60;86.90;;;;;;5040466;28;19978;-79
2022/09/20 01:03:57;;;;;;;;;;;11.70;86.50;;;;;;5032342;28;19961;-79
2022/09/20 01:06:23;;;;;;;;;;;11.60;86.70;;;;;;5043642;28;19920;-80
2022/09/20 01:08:50;;;;;;;;;;;11.50;87.50;;;;;;5033681;28;19920;-80
2022/09/20 01:11:15;;;;;;;;;;;11.60;87.00;;;;;;5012213;28;19921;-79
2022/09/20 01:13:41;;;;;;;;;;;11.60;87.10;;;;;;5033951;28;20404;-79
2022/09/20 01:16:07;;;;;;;;;;;11.60;86.80;;;;;;5044133;28;20378;-79
2022/09/20 01:18:33;;;;;;;;;;;11.50;87.30;;;;;;5040440;28;19924;-79
2022/09/20 01:21:00;;;;;;;;;;;11.40;87.70;;;;;;5050425;28;20377;-79
2022/09/20 01:23:33;;;;;;;;;;;11.40;87.60;;;;;;5051661;28;19927;-79
2022/09/20 01:26:18;;;;;;;;;;;11.40;87.90;;;;;;5035199;28;19917;-80
2022/09/20 01:28:46;;;;;;;;;;;11.40;87.40;;;;;;5031825;28;19917;-80
2022/09/20 01:31:38;;;;;;;;;;;11.50;87.30;;;;;;5033950;28;19928;-79
2022/09/20 01:34:08;;;;;;;;;;;11.40;87.70;;;;;;5032883;28;20026;-79
2022/09/20 01:36:38;;;;;;;;;;;11.40;87.70;;;;;;5032788;28;19923;-80
2022/09/20 01:39:14;;;;;;;;;;;11.40;87.50;;;;;;5037726;28;19917;-80
2022/09/20 01:42:00;;;;;;;;;;;11.30;88.00;;;;;;5031953;28;19966;-79
2022/09/20 01:44:38;;;;;;;;;;;11.20;88.40;;;;;;5033867;28;20397;-79
2022/09/20 01:47:16;;;;;;;;;;;11.20;88.60;;;;;;5034926;28;19917;-79
2022/09/20 01:49:53;;;;;;;;;;;11.10;89.10;;;;;;5029069;28;19913;-79
2022/09/20 01:52:37;;;;;;;;;;;11.20;88.10;;;;;;5054598;28;20448;-80
2022/09/20 01:55:17;;;;;;;;;;;11.10;88.90;;;;;;5032497;28;19924;-80
2022/09/20 01:57:49;;;;;;;;;;;11.20;88.70;;;;;;5031987;28;19921;-79
2022/09/20 02:00:37;;;;;;;;;;;11.00;89.60;;;;;;5046953;28;20457;-80
2022/09/20 02:03:03;;;;;;;;;;;11.10;89.50;;;;;;5050833;28;19928;-79
2022/09/20 02:05:31;;;;;;;;;;;11.10;89.40;;;;;;5061860;28;19916;-79
2022/09/20 02:08:15;;;;;;;;;;;11.00;90.00;;;;;;5063167;28;19916;-79
2022/09/20 02:10:59;;;;;;;;;;;11.00;90.20;;;;;;5052793;28;19920;-79
2022/09/20 02:13:28;;;;;;;;;;;10.90;90.30;;;;;;5050627;28;19929;-79
2022/09/20 02:16:06;;;;;;;;;;;10.90;90.20;;;;;;5056966;28;19917;-79
2022/09/20 02:18:31;;;;;;;;;;;10.90;90.30;;;;;;5060227;28;19962;-79
2022/09/20 02:21:07;;;;;;;;;;;10.90;90.40;;;;;;5060180;28;19921;-79
2022/09/20 02:23:35;;;;;;;;;;;10.90;90.30;;;;;;5051259;28;20603;-79
2022/09/20 02:26:04;;;;;;;;;;;10.80;90.50;;;;;;5052291;28;19916;-78
2022/09/20 02:28:48;;;;;;;;;;;10.90;90.50;;;;;;5044941;28;19962;-79
2022/09/20 02:31:35;;;;;;;;;;;10.80;90.70;;;;;;5049174;28;20453;-79
2022/09/20 02:34:19;;;;;;;;;;;10.70;90.80;;;;;;5052944;28;19924;-79
2022/09/20 02:37:03;;;;;;;;;;;10.70;90.90;;;;;;5053163;28;20361;-79
2022/09/20 02:39:35;;;;;;;;;;;10.70;91.00;;;;;;5053600;28;20499;-80
2022/09/20 02:42:16;;;;;;;;;;;10.80;90.80;;;;;;5047436;28;19926;-79
2022/09/20 02:44:46;;;;;;;;;;;10.70;91.00;;;;;;5049701;28;19916;-79
2022/09/20 02:47:23;;;;;;;;;;;10.60;91.30;;;;;;5053270;28;19921;-79
2022/09/20 02:49:49;;;;;;;;;;;10.60;91.40;;;;;;5049804;28;19917;-80
2022/09/20 02:52:33;;;;;;;;;;;10.60;91.30;;;;;;5054648;28;19928;-79
2022/09/20 02:54:59;;;;;;;;;;;10.50;91.30;;;;;;5050878;28;19917;-79
2022/09/20 02:57:36;;;;;;;;;;;10.60;91.10;;;;;;5053079;28;20411;-79
2022/09/20 03:00:02;;;;;;;;;;;10.60;91.10;;;;;;5053576;28;19972;-79
2022/09/20 03:02:30;;;;;;;;;;;10.70;91.00;;;;;;5049080;28;20032;-79
2022/09/20 03:05:14;;;;;;;;;;;10.50;91.20;;;;;;5053562;28;19986;-79
2022/09/20 03:07:58;;;;;;;;;;;10.60;91.00;;;;;;5056551;28;19943;-79
2022/09/20 03:10:34;;;;;;;;;;;10.50;91.30;;;;;;5052102;28;19924;-79
2022/09/20 03:13:06;;;;;;;;;;;10.50;91.40;;;;;;5050941;28;19932;-79
2022/09/20 03:15:44;;;;;;;;;;;10.50;91.20;;;;;;5052811;28;20002;-79
2022/09/20 03:18:09;;;;;;;;;;;10.50;91.30;;;;;;5057725;28;19916;-79
2022/09/20 03:20:53;;;;;;;;;;;10.50;91.10;;;;;;5058885;28;19927;-80
2022/09/20 03:23:47;;;;;;;;;;;10.50;91.30;;;;;;5077344;28;19991;-80
2022/09/20 03:26:32;;;;;;;;;;;10.40;91.40;;;;;;5047728;28;19924;-79
2022/09/20 03:28:58;;;;;;;;;;;10.40;91.40;;;;;;5032876;28;20850;-79
2022/09/20 03:31:32;;;;;;;;;;;10.40;91.50;;;;;;5033542;28;19917;-79
2022/09/20 03:34:01;;;;;;;;;;;10.50;91.10;;;;;;5033459;28;20008;-78
2022/09/20 03:36:45;;;;;;;;;;;10.40;91.40;;;;;;5031382;28;20000;-79
2022/09/20 03:39:29;;;;;;;;;;;10.30;91.40;;;;;;5034712;28;19947;-78
2022/09/20 03:41:57;;;;;;;;;;;10.40;91.40;;;;;;5034897;28;20447;-79
2022/09/20 03:44:33;;;;;;;;;;;10.40;91.40;;;;;;5035501;28;19920;-78
2022/09/20 03:47:24;;;;;;;;;;;10.40;91.50;;;;;;5033107;28;19920;-79
2022/09/20 03:49:55;;;;;;;;;;;10.30;91.70;;;;;;5035217;28;19956;-80
2022/09/20 03:52:36;;;;;;;;;;;10.30;91.80;;;;;;5038116;28;20077;-79
2022/09/20 03:55:21;;;;;;;;;;;10.20;91.90;;;;;;5034677;28;19932;-78
2022/09/20 03:57:49;;;;;;;;;;;10.20;92.00;;;;;;5038159;28;19923;-79
2022/09/20 04:00:22;;;;;;;;;;;10.20;92.20;;;;;;5036525;28;19935;-80
2022/09/20 04:03:02;;;;;;;;;;;10.10;92.30;;;;;;5044640;28;19919;-79
2022/09/20 04:05:43;;;;;;;;;;;10.10;92.50;;;;;;5052540;28;19969;-79
2022/09/20 04:08:31;;;;;;;;;;;10.00;92.80;;;;;;5054759;28;19924;-79
2022/09/20 04:11:15;;;;;;;;;;;10.00;93.10;;;;;;5037987;28;19990;-79
2022/09/20 04:13:44;;;;;;;;;;;9.90;93.30;;;;;;5036406;28;21890;-79
2022/09/20 04:16:12;;;;;;;;;;;9.90;93.30;;;;;;5037750;28;19932;-79
2022/09/20 04:18:59;;;;;;;;;;;9.90;93.20;;;;;;5042331;28;19921;-79
2022/09/20 04:21:37;;;;;;;;;;;9.80;93.50;;;;;;5045916;28;19917;-80
2022/09/20 04:24:20;;;;;;;;;;;9.80;93.60;;;;;;5036167;28;19917;-79
2022/09/20 04:26:48;;;;;;;;;;;9.90;93.60;;;;;;5037045;28;19917;-79
2022/09/20 04:29:22;;;;;;;;;;;9.70;93.90;;;;;;5039772;28;20305;-79
2022/09/20 04:31:52;;;;;;;;;;;9.70;94.10;;;;;;5037133;28;20398;-78
2022/09/20 04:37:23;;;;;;;;;;;9.50;94.50;;;;;;5035472;28;20403;-79
2022/09/20 04:39:55;;;;;;;;;;;9.50;94.50;;;;;;5038133;28;19916;-80
2022/09/20 04:42:33;;;;;;;;;;;9.50;94.80;;;;;;5041587;28;20651;-79
2022/09/20 04:45:18;;;;;;;;;;;9.50;94.90;;;;;;5039274;28;20031;-79
2022/09/20 04:48:03;;;;;;;;;;;9.40;95.10;;;;;;5046016;28;19920;-79
2022/09/20 04:50:47;;;;;;;;;;;9.30;95.40;;;;;;5066290;28;20575;-79
2022/09/20 04:53:13;;;;;;;;;;;9.30;95.60;;;;;;5068268;28;19925;-79
2022/09/20 04:55:39;;;;;;;;;;;9.50;95.30;;;;;;5045839;28;19959;-78
2022/09/20 04:58:13;;;;;;;;;;;9.40;95.30;;;;;;5046060;28;19917;-80
2022/09/20 05:00:54;;;;;;;;;;;9.60;95.00;;;;;;5045567;28;20098;-78
2022/09/20 05:03:34;;;;;;;;;;;9.50;95.20;;;;;;5045595;28;19913;-79
2022/09/20 05:06:13;;;;;;;;;;;9.30;95.60;;;;;;5046902;28;19920;-79
2022/09/20 05:08:59;;;;;;;;;;;9.40;96.00;;;;;;5063905;28;19917;-78
2022/09/20 05:11:30;;;;;;;;;;;9.30;95.70;;;;;;5040974;28;19924;-79
2022/09/20 05:14:03;;;;;;;;;;;9.40;95.60;;;;;;5044134;28;19928;-79
2022/09/20 05:16:35;;;;;;;;;;;9.40;95.60;;;;;;5041516;28;19970;-79
2022/09/20 05:19:25;;;;;;;;;;;9.40;95.60;;;;;;5023802;28;20406;-78
2022/09/20 05:21:53;;;;;;;;;;;9.30;95.70;;;;;;5025841;28;19998;-75
2022/09/20 05:24:37;;;;;;;;;;;9.50;96.20;;;;;;5042656;28;20405;-75
2022/09/20 05:27:05;;;;;;;;;;;9.50;95.70;;;;;;5040597;28;20012;-76
2022/09/20 05:29:35;;;;;;;;;;;9.70;95.40;;;;;;5041112;28;20404;-75
2022/09/20 05:32:05;;;;;;;;;;;9.90;95.00;;;;;;5041166;28;19917;-75
2022/09/20 05:34:38;;;;;;;;;;;9.60;95.70;;;;;;5042375;28;19917;-76
2022/09/20 05:37:11;;;;;;;;;;;9.30;96.40;;;;;;5041062;28;19917;-76
2022/09/20 05:39:44;;;;;;;;;;;9.40;96.40;;;;;;5040113;28;19958;-76
2022/09/20 05:42:28;;;;;;;;;;;9.30;96.60;;;;;;5027890;28;19963;-76
2022/09/20 05:45:03;;;;;;;;;;;9.30;96.60;;;;;;5042629;28;20410;-75
2022/09/20 05:47:38;;;;;;;;;;;9.60;96.90;;;;;;5043582;28;19912;-76
2022/09/20 05:50:22;;;;;;;;;;;9.60;95.80;;;;;;5085307;28;20040;-76
2022/09/20 05:52:56;;;;;;;;;;;9.80;95.20;;;;;;5051884;28;19966;-75
2022/09/20 05:55:34;;;;;;;;;;;10.50;93.40;;;;;;5076955;28;19939;-76
2022/09/20 05:58:09;;;;;;;;;;;10.50;93.20;;;;;;5070500;28;20006;-76
2022/09/20 06:00:39;;;;;;;;;;;10.80;92.50;;;;;;5072371;28;19994;-75
2022/09/20 06:03:29;;;;;;;;;;;11.20;91.60;;;;;;5044890;28;20287;-76
2022/09/20 06:05:57;;;;;;;;;;;11.40;91.10;;;;;;5044563;28;20023;-75
2022/09/20 06:08:28;;;;;;;;;;;11.90;90.10;;;;;;5045998;28;19913;-76
2022/09/20 06:11:01;;;;;;;;;;;12.30;88.60;;;;;;5080725;28;19919;-76
2022/09/20 06:13:41;;;;;;;;;;;12.00;88.50;;;;;;5063375;28;19960;-76
2022/09/20 06:16:11;;;;;;;;;;;12.30;87.30;;;;;;5067525;28;19935;-77
2022/09/20 06:18:54;;;;;;;;;;;12.30;88.90;;;;;;5064401;28;19912;-75
2022/09/20 06:21:26;;;;;;;;;;;11.90;90.00;;;;;;5063280;28;19973;-76
2022/09/20 06:23:55;;;;;;;;;;;11.80;90.50;;;;;;5063915;28;20027;-76
2022/09/20 06:26:22;;;;;;;;;;;12.20;90.30;;;;;;5064712;28;19934;-76
2022/09/20 06:28:51;;;;;;;;;;;12.30;89.20;;;;;;5064387;28;19999;-76
2022/09/20 06:31:17;;;;;;;;;;;12.40;87.80;;;;;;5063963;28;20432;-77
2022/09/20 06:33:45;;;;;;;;;;;12.60;88.60;;;;;;5075855;28;19924;-77
2022/09/20 06:42:03;;;;;;;;;;;14.00;85.40;;;;;;5079294;28;19919;-79
2022/09/20 06:44:28;;;;;;;;;;;14.30;81.90;;;;;;5075105;28;19916;-79
2022/09/20 06:46:54;;;;;;;;;;;14.50;82.20;;;;;;5083513;28;20045;-81
2022/09/20 06:49:20;;;;;;;;;;;14.80;81.70;;;;;;5083809;28;20468;-81
2022/09/20 06:51:46;;;;;;;;;;;15.10;79.60;;;;;;5083928;28;19923;-80
2022/09/20 06:54:16;;;;;;;;;;;15.00;79.00;;;;;;5084318;28;19912;-79
2022/09/20 06:56:42;;;;;;;;;;;15.00;79.50;;;;;;5081749;28;19912;-80
2022/09/20 06:59:10;;;;;;;;;;;15.60;77.90;;;;;;5082484;28;19916;-79
2022/09/20 07:01:36;;;;;;;;;;;15.80;77.10;;;;;;5083333;28;19920;-79
2022/09/20 07:04:02;;;;;;;;;;;16.10;76.00;;;;;;5074520;28;19962;-80
2022/09/20 07:06:28;;;;;;;;;;;15.90;75.60;;;;;;5068124;28;19916;-80
2022/09/20 07:08:53;;;;;;;;;;;16.00;77.30;;;;;;5082217;28;19920;-79
2022/09/20 07:11:20;;;;;;;;;;;16.20;76.20;;;;;;5083426;28;20345;-80
2022/09/20 07:13:49;;;;;;;;;;;16.70;74.80;;;;;;5078977;28;19924;-79
2022/09/20 07:16:14;;;;;;;;;;;16.80;74.20;;;;;;5083661;28;20737;-79
2022/09/20 07:18:41;;;;;;;;;;;16.50;74.10;;;;;;5083188;28;19935;-80
2022/09/20 07:21:11;;;;;;;;;;;17.20;73.00;;;;;;5083570;28;20190;-80
2022/09/20 07:23:36;;;;;;;;;;;17.40;72.80;;;;;;5083226;28;20002;-79
2022/09/20 07:26:02;;;;;;;;;;;17.20;72.20;;;;;;5083459;28;19998;-79
2022/09/20 07:28:28;;;;;;;;;;;17.40;72.10;;;;;;5081408;28;20026;-79
2022/09/20 07:30:53;;;;;;;;;;;17.70;72.00;;;;;;5083534;28;19912;-80
2022/09/20 07:33:20;;;;;;;;;;;17.80;71.30;;;;;;5087097;28;19927;-80
2022/09/20 07:35:46;;;;;;;;;;;18.10;69.80;;;;;;5081135;28;19920;-79
2022/09/20 07:38:12;;;;;;;;;;;17.90;69.70;;;;;;5067587;28;20266;-81
2022/09/20 07:40:37;;;;;;;;;;;17.70;69.30;;;;;;5067260;28;19913;-80
2022/09/20 07:43:03;;;;;;;;;;;18.20;69.20;;;;;;5066839;28;20384;-80
2022/09/20 07:45:29;;;;;;;;;;;18.90;68.70;;;;;;5067216;28;19917;-80
2022/09/20 07:47:58;;;;;;;;;;;18.50;68.70;;;;;;5066344;28;19924;-79
2022/09/20 07:50:24;;;;;;;;;;;18.70;67.30;;;;;;5066350;28;19912;-79
2022/09/20 07:52:49;;;;;;;;;;;19.00;67.50;;;;;;5068573;28;19985;-80
2022/09/20 07:55:15;;;;;;;;;;;19.40;67.90;;;;;;5080840;28;19924;-80
2022/09/20 07:57:41;;;;;;;;;;;19.70;66.40;;;;;;5067018;28;19995;-80
2022/09/20 08:00:08;;;;;;;;;;;19.50;66.30;;;;;;5075030;28;20010;-80
2022/09/20 08:02:33;;;;;;;;;;;20.40;65.30;;;;;;5086771;28;19939;-79
2022/09/20 08:04:59;;;;;;;;;;;20.10;64.70;;;;;;5081888;28;20569;-80
2022/09/20 08:07:25;;;;;;;;;;;20.00;65.20;;;;;;5067365;28;20758;-79
2022/09/20 08:09:50;;;;;;;;;;;20.30;64.00;;;;;;5067367;28;19913;-80
2022/09/20 08:12:18;;;;;;;;;;;21.10;62.60;;;;;;5075565;28;19916;-80
2022/09/20 08:14:44;;;;;;;;;;;20.50;63.30;;;;;;5086802;28;19981;-80
2022/09/20 08:17:10;;;;;;;;;;;20.10;60.80;;;;;;5086521;28;19920;-80
2022/09/20 08:19:38;;;;;;;;;;;20.30;61.60;;;;;;5086684;28;19922;-80
2022/09/20 08:22:03;;;;;;;;;;;21.00;61.00;;;;;;5087015;28;19912;-80
2022/09/20 08:24:29;;;;;;;;;;;21.00;60.20;;;;;;5087107;28;20817;-79
2022/09/20 08:26:55;;;;;;;;;;;20.70;59.90;;;;;;5068608;28;19923;-80
2022/09/20 08:29:21;;;;;;;;;;;21.10;59.00;;;;;;5086544;28;20013;-80
2022/09/20 08:31:46;;;;;;;;;;;20.80;59.00;;;;;;5086071;28;20670;-80
2022/09/20 08:34:13;;;;;;;;;;;21.00;59.00;;;;;;5086138;28;19912;-79
2022/09/20 08:36:40;;;;;;;;;;;21.10;59.40;;;;;;5072502;28;20381;-80
2022/09/20 08:39:06;;;;;;;;;;;20.50;60.20;;;;;;5066431;28;19951;-80
2022/09/20 08:41:39;;;;;;;;;;;21.10;59.60;;;;;;5065965;28;19971;-80
2022/09/20 08:44:06;;;;;;;;;;;21.30;58.10;;;;;;5065029;28;20716;-80
2022/09/20 08:46:34;;;;;;;;;;;21.70;57.50;;;;;;5065547;28;20472;-80
2022/09/20 08:49:02;;;;;;;;;;;21.90;57.60;;;;;;5066253;28;19912;-80
2022/09/20 08:51:29;;;;;;;;;;;22.20;57.10;;;;;;5066538;28;20818;-80
2022/09/20 08:53:55;;;;;;;;;;;21.90;57.30;;;;;;5067957;28;19920;-80
2022/09/20 08:56:21;;;;;;;;;;;22.90;56.50;;;;;;5075432;28;19924;-80
2022/09/20 08:58:47;;;;;;;;;;;22.30;56.90;;;;;;5085747;28;20022;-80
2022/09/20 09:01:23;;;;;;;;;;;22.90;56.20;;;;;;5082319;28;20409;-80
2022/09/20 09:04:04;;;;;;;;;;;22.20;56.90;;;;;;5058794;28;20017;-80
2022/09/20 09:06:30;;;;;;;;;;;22.80;55.90;;;;;;5063391;28;19915;-79
2022/09/20 09:08:58;;;;;;;;;;;23.10;56.00;;;;;;5068558;28;20466;-79
2022/09/20 09:11:23;;;;;;;;;;;23.20;55.20;;;;;;5065820;28;20293;-80
2022/09/20 09:13:55;;;;;;;;;;;23.70;54.90;;;;;;5065742;28;19924;-80
2022/09/20 09:16:22;;;;;;;;;;;23.50;54.90;;;;;;5064011;28;20404;-79
2022/09/20 09:18:49;;;;;;;;;;;23.20;54.60;;;;;;5085476;28;20396;-79
2022/09/20 09:21:19;;;;;;;;;;;23.60;54.70;;;;;;5069128;28;19954;-80
2022/09/20 09:24:01;;;;;;;;;;;23.60;53.90;;;;;;5065044;28;19921;-79
2022/09/20 09:26:27;;;;;;;;;;;24.30;54.40;;;;;;5065258;28;19958;-79
2022/09/20 09:29:11;;;;;;;;;;;24.00;52.70;;;;;;5065327;28;19916;-80
2022/09/20 09:31:38;;;;;;;;;;;24.20;53.60;;;;;;5065983;28;20542;-79
2022/09/20 09:34:04;;;;;;;;;;;24.70;52.40;;;;;;5085392;28;19920;-80
2022/09/20 09:36:32;;;;;;;;;;;24.30;52.50;;;;;;5078100;28;20573;-80
2022/09/20 09:39:22;;;;;;;;;;;23.80;52.20;;;;;;5063381;28;20404;-80
2022/09/20 09:41:47;;;;;;;;;;;23.40;52.40;;;;;;5082137;28;19912;-80
2022/09/20 09:44:23;;;;;;;;;;;23.20;52.90;;;;;;5079967;28;19919;-80
2022/09/20 09:46:49;;;;;;;;;;;23.10;52.80;;;;;;5065154;28;19918;-79
2022/09/20 09:49:25;;;;;;;;;;;21.70;53.00;;;;;;5068602;28;20011;-80
2022/09/20 09:52:03;;;;;;;;;;;22.20;55.00;;;;;;5046646;28;20377;-80
2022/09/20 09:54:37;;;;;;;;;;;21.40;56.80;;;;;;5067804;28;20403;-79
2022/09/20 09:57:38;;;;;;;;;;;20.90;56.10;;;;;;5064477;28;19912;-80
2022/09/20 10:00:17;;;;;;;;;;;21.00;55.80;;;;;;5029706;28;19940;-81
2022/09/20 10:03:01;;;;;;;;;;;21.40;55.80;;;;;;5041815;28;19952;-80
2022/09/20 10:05:31;;;;;;;;;;;21.70;57.40;;;;;;5041508;28;19988;-80
2022/09/20 10:08:15;;;;;;;;;;;21.30;57.40;;;;;;5041134;28;19912;-79
2022/09/20 10:10:53;;;;;;;;;;;21.00;56.10;;;;;;5041914;28;20583;-80
2022/09/20 10:13:19;;;;;;;;;;;20.90;57.10;;;;;;5044384;28;19929;-80
2022/09/20 10:15:55;;;;;;;;;;;20.90;57.60;;;;;;5041195;28;19913;-80
2022/09/20 10:18:26;;;;;;;;;;;20.70;57.00;;;;;;5041283;28;19919;-80
2022/09/20 10:20:54;;;;;;;;;;;20.80;58.30;;;;;;5058415;28;19971;-80
2022/09/20 10:23:40;;;;;;;;;;;20.80;57.30;;;;;;5046566;28;19917;-80
2022/09/20 10:26:20;;;;;;;;;;;20.40;58.10;;;;;;5055703;28;20504;-81
2022/09/20 10:29:05;;;;;;;;;;;20.30;57.10;;;;;;5040646;28;20012;-78
2022/09/20 10:31:56;;;;;;;;;;;20.00;58.50;;;;;;5040933;28;19913;-80
2022/09/20 10:34:25;;;;;;;;;;;21.10;57.30;;;;;;5054609;28;20050;-78
2022/09/20 10:36:51;;;;;;;;;;;20.50;56.70;;;;;;5062815;28;19995;-78
2022/09/20 10:39:19;;;;;;;;;;;20.30;57.40;;;;;;5063759;28;20018;-79
2022/09/20 10:44:51;;;;;;;;;;;20.30;58.40;;;;;;5043634;28;19920;-79
2022/09/20 10:47:19;;;;;;;;;;;20.60;57.90;;;;;;5043740;28;20385;-80
2022/09/20 10:49:52;;;;;;;;;;;20.40;58.50;;;;;;5043885;28;20426;-79
2022/09/20 10:52:27;;;;;;;;;;;19.80;59.20;;;;;;5043452;28;20011;-78
2022/09/20 10:55:11;;;;;;;;;;;20.30;59.20;;;;;;5078811;28;19927;-79
2022/09/20 10:57:37;;;;;;;;;;;20.30;58.20;;;;;;5083150;28;19932;-79
2022/09/20 11:00:21;;;;;;;;;;;20.10;58.70;;;;;;5083967;28;20041;-80
2022/09/20 11:02:46;;;;;;;;;;;20.00;58.30;;;;;;5083925;28;19912;-79
2022/09/20 11:05:19;;;;;;;;;;;20.10;59.30;;;;;;5079602;28;20277;-79
2022/09/20 11:07:51;;;;;;;;;;;19.90;60.10;;;;;;5061464;28;19999;-79
2022/09/20 11:10:23;;;;;;;;;;;20.40;60.00;;;;;;5063808;28;20040;-79
2022/09/20 11:13:11;;;;;;;;;;;20.10;58.20;;;;;;5063340;28;19942;-79
2022/09/20 11:15:42;;;;;;;;;;;20.10;58.40;;;;;;5075181;28;19916;-79
2022/09/20 11:18:22;;;;;;;;;;;20.10;59.00;;;;;;5083853;28;19934;-78
2022/09/20 11:20:55;;;;;;;;;;;20.10;59.30;;;;;;5084453;28;20003;-78
2022/09/20 11:23:24;;;;;;;;;;;20.20;59.40;;;;;;5077388;28;20612;-79
2022/09/20 11:25:53;;;;;;;;;;;20.10;57.80;;;;;;5069096;28;19920;-79
2022/09/20 11:28:24;;;;;;;;;;;20.10;58.80;;;;;;5083672;28;19923;-79
2022/09/20 11:31:16;;;;;;;;;;;20.10;58.80;;;;;;5084263;28;19996;-79
2022/09/20 11:33:44;;;;;;;;;;;19.60;58.20;;;;;;5074478;28;20253;-79
2022/09/20 11:36:15;;;;;;;;;;;19.80;59.80;;;;;;5072430;28;19916;-78
2022/09/20 11:38:56;;;;;;;;;;;19.80;59.20;;;;;;5057012;28;20086;-80
2022/09/20 11:41:25;;;;;;;;;;;19.70;60.50;;;;;;5068665;28;19916;-80
2022/09/20 11:43:51;;;;;;;;;;;20.00;59.40;;;;;;5057204;28;20297;-80
2022/09/20 11:46:24;;;;;;;;;;;19.70;58.60;;;;;;5049997;28;19932;-80
2022/09/20 11:49:07;;;;;;;;;;;19.80;58.40;;;;;;5050334;28;19969;-79
2022/09/20 11:51:49;;;;;;;;;;;20.00;59.80;;;;;;5052967;28;20305;-81
2022/09/20 11:54:14;;;;;;;;;;;20.00;59.10;;;;;;5048526;28;19936;-82
2022/09/20 11:56:47;;;;;;;;;;;20.00;58.10;;;;;;5058493;28;19916;-82
2022/09/20 11:59:27;;;;;;;;;;;20.10;58.20;;;;;;5046592;28;19917;-82
2022/09/20 12:01:54;;;;;;;;;;;20.10;59.10;;;;;;5047087;28;19978;-81
2022/09/20 12:04:22;;;;;;;;;;;20.10;59.00;;;;;;5061007;28;20028;-80
2022/09/20 12:06:56;;;;;;;;;;;20.00;58.60;;;;;;5049100;28;19924;-81
2022/09/20 12:09:27;;;;;;;;;;;20.10;58.40;;;;;;5050220;28;20015;-81
2022/09/20 12:11:53;;;;;;;;;;;20.10;57.10;;;;;;5062536;28;19916;-81
2022/09/20 12:14:23;;;;;;;;;;;20.00;57.70;;;;;;5061877;28;20032;-82
2022/09/20 12:16:49;;;;;;;;;;;19.90;58.10;;;;;;5079253;28;19913;-81
2022/09/20 12:19:31;;;;;;;;;;;20.00;60.20;;;;;;5071649;28;19920;-80
2022/09/20 12:21:59;;;;;;;;;;;20.00;58.00;;;;;;5081858;28;19916;-80
2022/09/20 12:24:27;;;;;;;;;;;20.10;58.30;;;;;;5085980;28;19912;-80
2022/09/20 12:26:55;;;;;;;;;;;19.90;57.60;;;;;;5086547;28;19999;-79
2022/09/20 12:29:24;;;;;;;;;;;19.80;57.90;;;;;;5087009;28;19912;-80
2022/09/20 12:31:51;;;;;;;;;;;20.20;59.40;;;;;;5086167;28;19912;-80
2022/09/20 12:34:17;;;;;;;;;;;20.10;58.10;;;;;;5086562;28;19922;-80
2022/09/20 12:36:54;;;;;;;;;;;20.00;58.20;;;;;;5072141;28;20003;-80
2022/09/20 12:39:24;;;;;;;;;;;19.90;57.50;;;;;;5066208;28;20454;-81
2022/09/20 12:41:53;;;;;;;;;;;19.80;57.70;;;;;;5066096;28;19970;-81
2022/09/20 12:44:27;;;;;;;;;;;19.80;57.50;;;;;;5064698;28;19940;-78
2022/09/20 12:46:58;;;;;;;;;;;19.90;58.50;;;;;;5066238;28;20475;-81
2022/09/20 12:55:05;;;;;;;;;;;20.10;58.40;;;;;;5065346;28;19965;-79
2022/09/20 12:57:31;;;;;;;;;;;20.00;56.50;;;;;;5065861;28;19916;-80
2022/09/20 12:59:58;;;;;;;;;;;19.90;56.40;;;;;;5098051;28;20814;-80
2022/09/20 13:02:43;;;;;;;;;;;19.90;57.20;;;;;;5064116;28;19924;-81
2022/09/20 13:05:30;;;;;;;;;;;20.00;56.30;;;;;;5065537;28;20369;-80
2022/09/20 13:08:01;;;;;;;;;;;20.00;56.00;;;;;;5065330;28;19943;-80
2022/09/20 13:10:28;;;;;;;;;;;20.10;55.80;;;;;;5066064;28;19987;-81
2022/09/20 13:13:00;;;;;;;;;;;20.20;55.70;;;;;;5065533;28;19921;-80
2022/09/20 13:15:26;;;;;;;;;;;20.20;55.00;;;;;;5065922;28;19923;-81
2022/09/20 13:17:53;;;;;;;;;;;20.10;55.40;;;;;;5063765;28;19913;-80
2022/09/20 13:20:21;;;;;;;;;;;20.00;56.20;;;;;;5065253;28;19913;-80
2022/09/20 13:22:47;;;;;;;;;;;20.20;56.70;;;;;;5065136;28;19912;-80
2022/09/20 13:25:14;;;;;;;;;;;20.40;57.90;;;;;;5065476;28;19932;-80
2022/09/20 13:27:50;;;;;;;;;;;20.40;56.70;;;;;;5063874;28;19912;-80
2022/09/20 13:30:16;;;;;;;;;;;20.30;56.10;;;;;;5064441;28;20032;-80
2022/09/20 13:32:42;;;;;;;;;;;20.20;55.10;;;;;;5065137;28;19924;-80
2022/09/20 13:35:21;;;;;;;;;;;20.30;54.90;;;;;;5065079;28;19913;-81
2022/09/20 13:37:53;;;;;;;;;;;20.30;55.30;;;;;;5044891;28;19916;-80
2022/09/20 13:40:21;;;;;;;;;;;20.40;54.40;;;;;;5044858;28;20663;-80
2022/09/20 13:42:50;;;;;;;;;;;20.40;55.10;;;;;;5055459;28;20293;-79
2022/09/20 13:45:18;;;;;;;;;;;20.40;56.30;;;;;;5064893;28;19916;-80
2022/09/20 13:47:47;;;;;;;;;;;20.40;55.00;;;;;;5064815;28;19928;-80
2022/09/20 13:50:19;;;;;;;;;;;20.30;55.10;;;;;;5064634;28;19920;-80
2022/09/20 13:52:46;;;;;;;;;;;20.50;57.60;;;;;;5063406;28;19973;-80
2022/09/20 13:55:23;;;;;;;;;;;20.40;55.30;;;;;;5064754;28;19978;-81
2022/09/20 13:57:50;;;;;;;;;;;20.40;54.90;;;;;;5064609;28;20003;-79
2022/09/20 14:00:15;;;;;;;;;;;20.30;54.40;;;;;;5064862;28;19955;-80
2022/09/20 14:02:41;;;;;;;;;;;20.30;54.60;;;;;;5064660;28;20634;-80
2022/09/20 14:05:14;;;;;;;;;;;20.20;55.30;;;;;;5064692;28;19913;-81
2022/09/20 14:07:42;;;;;;;;;;;20.10;55.30;;;;;;5096840;28;19919;-80
2022/09/20 14:10:27;;;;;;;;;;;20.00;55.30;;;;;;5064653;28;20374;-80
2022/09/20 14:12:53;;;;;;;;;;;20.20;56.10;;;;;;5064803;28;20366;-81
2022/09/20 14:15:18;;;;;;;;;;;20.10;55.00;;;;;;5064772;28;19982;-81
2022/09/20 14:17:44;;;;;;;;;;;20.30;54.80;;;;;;5064398;28;20361;-81
2022/09/20 14:20:14;;;;;;;;;;;20.40;54.90;;;;;;5064020;28;20035;-80
2022/09/20 14:22:39;;;;;;;;;;;20.50;55.30;;;;;;5064535;28;19913;-80
2022/09/20 14:25:11;;;;;;;;;;;20.50;54.10;;;;;;5064927;28;19973;-81
2022/09/20 14:27:36;;;;;;;;;;;20.50;55.30;;;;;;5064197;28;19947;-80
2022/09/20 14:30:03;;;;;;;;;;;20.60;53.70;;;;;;5062517;28;19970;-80
2022/09/20 14:32:32;;;;;;;;;;;20.70;56.30;;;;;;5064011;28;19966;-80
2022/09/20 14:35:03;;;;;;;;;;;20.70;55.40;;;;;;5064134;28;19958;-80
2022/09/20 14:37:41;;;;;;;;;;;20.70;55.30;;;;;;5062366;28;19913;-80
2022/09/20 14:40:21;;;;;;;;;;;20.60;53.60;;;;;;5063853;28;19916;-81
2022/09/20 14:42:48;;;;;;;;;;;20.70;54.40;;;;;;5063798;28;19913;-80
2022/09/20 14:45:20;;;;;;;;;;;20.60;55.30;;;;;;5063973;28;20000;-80
2022/09/20 14:47:52;;;;;;;;;;;20.60;55.60;;;;;;5062599;28;20480;-81
2022/09/20 14:50:21;;;;;;;;;;;20.60;54.40;;;;;;5074632;28;19965;-81
2022/09/20 14:52:57;;;;;;;;;;;20.50;54.30;;;;;;5076680;28;19946;-81
2022/09/20 14:55:27;;;;;;;;;;;20.50;55.30;;;;;;5081681;28;19916;-80
2022/09/20 14:57:55;;;;;;;;;;;20.50;54.80;;;;;;5076459;28;19990;-81
2022/09/20 15:00:21;;;;;;;;;;;20.60;55.00;;;;;;5063343;28;20490;-81
2022/09/20 15:02:47;;;;;;;;;;;20.40;53.90;;;;;;5062118;28;19916;-80
2022/09/20 15:05:22;;;;;;;;;;;20.10;54.00;;;;;;5083682;28;19919;-81
2022/09/20 15:07:48;;;;;;;;;;;19.90;54.00;;;;;;5079949;28;19916;-81